Time;durP1;ratioP1;P1;durP2;ratioP2;P2;SDS_P1;SDS_P2;PMS_P1;PMS_P2;Temp;Humidity;BMP_temperature;BMP_pressure;BME280_temperature;BME280_humidity;BME280_pressure;Samples;Min_cycle;Max_cycle;Signal;HPM_P1;HPM_P2
2022/03/02 00:00:53;;;;;;;;;;;;;;;16.25;41.35;101385.06;5077647;28;874;-65
2022/03/02 00:03:19;;;;;;;;;;;;;;;17.84;37.59;101378.47;5078200;28;935;-64
2022/03/02 00:05:44;;;;;;;;;;;;;;;17.35;38.44;101383.13;5077962;28;862;-64
2022/03/02 00:08:10;;;;;;;;;;;;;;;16.88;39.49;101381.06;5076827;28;1905;-65
2022/03/02 00:10:35;;;;;;;;;;;;;;;16.69;39.82;101377.84;5077386;28;1620;-64
2022/03/02 00:13:01;;;;;;;;;;;;;;;16.54;40.40;101375.81;5078005;28;811;-65
2022/03/02 00:15:26;;;;;;;;;;;;;;;17.69;38.11;101371.78;5077386;28;1056;-65
2022/03/02 00:17:52;;;;;;;;;;;;;;;17.18;38.77;101363.19;5076250;28;798;-64
2022/03/02 00:20:17;;;;;;;;;;;;;;;16.72;39.97;101378.19;5077396;28;911;-65
2022/03/02 00:22:43;;;;;;;;;;;;;;;16.48;40.14;101371.31;5077508;28;897;-64
2022/03/02 00:25:08;;;;;;;;;;;;;;;17.19;39.13;101375.84;5077955;28;722;-65
2022/03/02 00:27:34;;;;;;;;;;;;;;;18.31;36.40;101363.81;5077398;28;1901;-65
2022/03/02 00:30:00;;;;;;;;;;;;;;;17.54;38.26;101360.69;5077472;28;840;-65
2022/03/02 00:32:25;;;;;;;;;;;;;;;17.39;38.34;101356.78;5076974;28;808;-64
2022/03/02 00:34:50;;;;;;;;;;;;;;;16.89;39.48;101356.09;5077377;28;876;-65
2022/03/02 00:37:16;;;;;;;;;;;;;;;17.00;39.46;101356.19;5077223;28;766;-65
2022/03/02 00:39:42;;;;;;;;;;;;;;;17.16;39.06;101351.66;5077583;28;769;-65
2022/03/02 00:42:07;;;;;;;;;;;;;;;17.13;39.14;101341.19;5076887;28;821;-64
2022/03/02 00:44:33;;;;;;;;;;;;;;;16.91;39.60;101347.59;5077502;28;815;-64
2022/03/02 00:46:59;;;;;;;;;;;;;;;16.51;40.18;101337.84;5076763;28;1901;-64
2022/03/02 00:49:26;;;;;;;;;;;;;;;16.52;40.53;101345.88;5076444;28;920;-63
2022/03/02 00:51:53;;;;;;;;;;;;;;;16.49;40.56;101342.78;5077199;28;762;-63
2022/03/02 00:54:18;;;;;;;;;;;;;;;16.49;40.48;101337.31;5077271;28;1048;-63
2022/03/02 00:56:43;;;;;;;;;;;;;;;16.60;40.25;101330.81;5076726;28;853;-63
2022/03/02 00:59:09;;;;;;;;;;;;;;;16.84;39.85;101331.31;5076385;28;952;-63
2022/03/02 01:01:34;;;;;;;;;;;;;;;17.22;39.00;101331.34;5076516;28;992;-63
2022/03/02 01:04:00;;;;;;;;;;;;;;;17.36;38.69;101324.31;5076303;28;715;-63
2022/03/02 01:06:25;;;;;;;;;;;;;;;17.41;38.48;101318.84;5076752;28;1972;-63
2022/03/02 01:08:51;;;;;;;;;;;;;;;17.24;38.91;101318.19;5076544;28;728;-63
2022/03/02 01:11:16;;;;;;;;;;;;;;;16.87;39.59;101316.22;5076364;28;910;-63
2022/03/02 01:13:41;;;;;;;;;;;;;;;16.73;39.93;101319.41;5076681;28;860;-63
2022/03/02 01:16:07;;;;;;;;;;;;;;;16.33;40.83;101314.38;5074210;28;1119;-64
2022/03/02 01:18:32;;;;;;;;;;;;;;;16.39;40.53;101316.88;5076573;28;782;-63
2022/03/02 01:20:59;;;;;;;;;;;;;;;16.44;40.50;101310.63;5058517;28;827;-64
2022/03/02 01:23:25;;;;;;;;;;;;;;;16.91;39.67;101314.63;5075964;28;860;-64
2022/03/02 01:25:50;;;;;;;;;;;;;;;17.34;38.75;101315.50;5076320;28;818;-63
2022/03/02 01:28:16;;;;;;;;;;;;;;;17.65;38.07;101301.91;5075998;28;1909;-64
2022/03/02 01:30:41;;;;;;;;;;;;;;;17.69;38.04;101303.03;5074226;28;893;-64
2022/03/02 01:33:07;;;;;;;;;;;;;;;17.38;38.57;101305.63;5076418;28;805;-64
2022/03/02 01:35:32;;;;;;;;;;;;;;;17.02;39.28;101302.63;5076257;28;825;-63
2022/03/02 01:37:57;;;;;;;;;;;;;;;16.68;40.13;101305.63;5075753;28;870;-64
2022/03/02 01:40:23;;;;;;;;;;;;;;;16.48;40.42;101305.44;5076094;28;838;-64
2022/03/02 01:42:49;;;;;;;;;;;;;;;16.49;40.32;101312.59;5076238;28;894;-64
2022/03/02 01:45:14;;;;;;;;;;;;;;;16.62;40.12;101305.84;5074958;28;740;-64
2022/03/02 01:47:40;;;;;;;;;;;;;;;16.64;39.98;101299.00;5075140;28;1926;-64
2022/03/02 01:50:09;;;;;;;;;;;;;;;17.06;39.35;101301.00;5075425;28;864;-63
2022/03/02 01:52:34;;;;;;;;;;;;;;;17.24;38.76;101302.50;5076037;28;842;-63
2022/03/02 01:55:00;;;;;;;;;;;;;;;17.43;38.26;101294.66;5076237;28;881;-63
2022/03/02 01:57:26;;;;;;;;;;;;;;;17.17;39.08;101290.13;5076334;28;830;-63
2022/03/02 01:59:51;;;;;;;;;;;;;;;16.77;39.60;101290.34;5058185;28;821;-63
2022/03/02 02:02:17;;;;;;;;;;;;;;;16.51;40.21;101288.44;5064031;28;839;-63
2022/03/02 02:04:42;;;;;;;;;;;;;;;16.43;40.59;101287.84;5055569;28;1164;-63
2022/03/02 02:07:08;;;;;;;;;;;;;;;16.31;40.84;101275.38;5056048;28;1898;-63
2022/03/02 02:09:33;;;;;;;;;;;;;;;16.67;40.16;101272.94;5056438;28;758;-63
2022/03/02 02:11:58;;;;;;;;;;;;;;;17.02;39.25;101277.91;5055508;28;842;-63
2022/03/02 02:14:24;;;;;;;;;;;;;;;17.35;38.79;101283.31;5056800;28;1306;-63
2022/03/02 02:16:50;;;;;;;;;;;;;;;17.42;38.25;101278.44;5079032;28;874;-63
2022/03/02 02:19:16;;;;;;;;;;;;;;;17.32;38.72;101270.13;5079853;28;849;-63
2022/03/02 02:21:41;;;;;;;;;;;;;;;16.97;39.38;101269.66;5079517;28;777;-63
2022/03/02 02:24:07;;;;;;;;;;;;;;;16.66;39.79;101280.38;5079810;28;837;-63
2022/03/02 02:26:32;;;;;;;;;;;;;;;16.54;40.42;101268.72;5080095;28;1902;-63
2022/03/02 02:28:58;;;;;;;;;;;;;;;16.45;40.62;101264.78;5079502;28;876;-63
2022/03/02 02:31:23;;;;;;;;;;;;;;;17.81;37.79;101264.31;5079332;28;887;-63
2022/03/02 02:33:49;;;;;;;;;;;;;;;19.50;34.50;101259.91;5079607;28;829;-63
2022/03/02 02:36:14;;;;;;;;;;;;;;;18.20;36.53;101258.38;5078170;28;1021;-63
2022/03/02 02:38:40;;;;;;;;;;;;;;;17.58;38.08;101252.66;5079773;28;821;-63
2022/03/02 02:41:06;;;;;;;;;;;;;;;17.78;37.76;101260.16;5078632;28;877;-63
2022/03/02 02:43:31;;;;;;;;;;;;;;;18.47;36.52;101266.38;5079678;28;790;-63
2022/03/02 02:45:57;;;;;;;;;;;;;;;18.18;36.60;101265.25;5079043;28;930;-63
2022/03/02 02:48:22;;;;;;;;;;;;;;;17.45;38.15;101253.16;5079296;28;1909;-63
2022/03/02 02:50:48;;;;;;;;;;;;;;;17.33;38.92;101263.53;5078506;28;935;-63
2022/03/02 02:53:13;;;;;;;;;;;;;;;18.18;36.87;101266.06;5079464;28;967;-64
2022/03/02 02:55:39;;;;;;;;;;;;;;;17.83;37.38;101253.03;5079189;28;930;-63
2022/03/02 02:58:05;;;;;;;;;;;;;;;17.26;38.82;101255.53;5079202;28;812;-63
2022/03/02 03:00:31;;;;;;;;;;;;;;;17.04;39.46;101255.66;5078715;28;985;-64
2022/03/02 03:02:56;;;;;;;;;;;;;;;18.36;36.63;101248.19;5078887;28;861;-64
2022/03/02 03:05:23;;;;;;;;;;;;;;;18.61;35.90;101246.56;5079006;28;884;-64
2022/03/02 03:07:49;;;;;;;;;;;;;;;17.78;37.58;101240.91;5078510;28;1984;-64
2022/03/02 03:10:14;;;;;;;;;;;;;;;17.98;37.50;101244.00;5079230;28;758;-64
2022/03/02 03:12:40;;;;;;;;;;;;;;;18.61;36.25;101241.88;5077381;28;782;-64
2022/03/02 03:15:06;;;;;;;;;;;;;;;18.20;36.72;101249.28;5078546;28;1008;-63
2022/03/02 03:17:31;;;;;;;;;;;;;;;17.61;38.12;101240.28;5076472;28;1494;-63
2022/03/02 03:19:57;;;;;;;;;;;;;;;17.44;38.53;101238.56;5078815;28;765;-64
2022/03/02 03:22:22;;;;;;;;;;;;;;;18.61;36.21;101241.06;5078284;28;778;-64
2022/03/02 03:24:48;;;;;;;;;;;;;;;18.51;36.11;101241.03;5078438;28;865;-64
2022/03/02 03:27:13;;;;;;;;;;;;;;;17.60;37.95;101244.97;5078483;28;1905;-64
2022/03/02 03:29:39;;;;;;;;;;;;;;;18.27;36.98;101239.66;5078798;28;833;-65
2022/03/02 03:32:04;;;;;;;;;;;;;;;18.87;35.65;101235.50;5077858;28;913;-64
2022/03/02 03:34:30;;;;;;;;;;;;;;;18.69;35.90;101226.72;5078261;28;762;-64
2022/03/02 03:36:55;;;;;;;;;;;;;;;18.60;36.39;101229.19;5078388;28;853;-64
2022/03/02 03:39:21;;;;;;;;;;;;;;;18.15;36.86;101227.28;5078195;28;802;-64
2022/03/02 03:41:46;;;;;;;;;;;;;;;17.58;38.32;101222.41;5078555;28;833;-64
2022/03/02 03:44:12;;;;;;;;;;;;;;;17.38;38.81;101220.41;5078182;28;1413;-64
2022/03/02 03:46:37;;;;;;;;;;;;;;;17.07;39.22;101213.94;5078010;28;1902;-64
2022/03/02 03:49:03;;;;;;;;;;;;;;;16.80;38.93;101220.31;5078097;28;846;-65
2022/03/02 03:51:28;;;;;;;;;;;;;;;16.66;40.11;101216.38;5077963;28;736;-64
2022/03/02 03:53:53;;;;;;;;;;;;;;;17.06;39.68;101220.53;5078397;28;803;-64
2022/03/02 03:56:19;;;;;;;;;;;;;;;17.35;38.94;101217.34;5077589;28;915;-64
2022/03/02 03:58:44;;;;;;;;;;;;;;;17.17;39.33;101213.16;5078368;28;915;-64
2022/03/02 04:01:10;;;;;;;;;;;;;;;16.98;39.54;101215.53;5077479;28;857;-64
2022/03/02 04:03:35;;;;;;;;;;;;;;;16.76;39.77;101209.03;5077804;28;762;-64
2022/03/02 04:06:01;;;;;;;;;;;;;;;16.51;40.63;101211.59;5078064;28;877;-64
2022/03/02 04:08:27;;;;;;;;;;;;;;;16.30;40.42;101205.94;5077921;28;1909;-64
2022/03/02 04:10:52;;;;;;;;;;;;;;;17.36;38.97;101211.63;5077950;28;1017;-64
2022/03/02 04:13:18;;;;;;;;;;;;;;;17.40;38.70;101209.13;5077698;28;793;-65
2022/03/02 04:15:43;;;;;;;;;;;;;;;16.82;39.81;101200.84;5076100;28;1130;-63
2022/03/02 04:18:08;;;;;;;;;;;;;;;16.57;40.15;101200.38;5076867;28;1214;-60
2022/03/02 04:20:34;;;;;;;;;;;;;;;16.33;41.03;101202.66;5077720;28;729;-60
2022/03/02 04:23:00;;;;;;;;;;;;;;;16.40;40.88;101194.22;5076845;28;864;-62
2022/03/02 04:25:25;;;;;;;;;;;;;;;16.60;40.43;101196.28;5077339;28;842;-60
2022/03/02 04:27:50;;;;;;;;;;;;;;;16.98;39.56;101199.84;5077443;28;1901;-60
2022/03/02 04:30:16;;;;;;;;;;;;;;;17.35;38.84;101193.47;5076883;28;875;-61
2022/03/02 04:32:42;;;;;;;;;;;;;;;17.47;38.33;101195.16;5076808;28;974;-60
2022/03/02 04:35:07;;;;;;;;;;;;;;;17.38;38.90;101189.34;5077067;28;844;-60
2022/03/02 04:37:33;;;;;;;;;;;;;;;17.28;38.76;101187.38;5077017;28;921;-60
2022/03/02 04:39:58;;;;;;;;;;;;;;;17.08;39.10;101193.59;5076892;28;880;-60
2022/03/02 04:42:24;;;;;;;;;;;;;;;16.91;39.67;101196.53;5076832;28;877;-59
2022/03/02 04:44:49;;;;;;;;;;;;;;;16.65;40.24;101200.97;5076745;28;812;-60
2022/03/02 04:47:14;;;;;;;;;;;;;;;16.48;40.29;101201.97;5075925;28;1901;-60
2022/03/02 04:49:40;;;;;;;;;;;;;;;16.43;40.86;101226.63;5077129;28;751;-61
2022/03/02 04:52:05;;;;;;;;;;;;;;;16.41;40.62;101215.91;5076704;28;758;-60
2022/03/02 04:57:15;;;;;;;;;;;;;;;16.68;40.08;101217.78;5075530;28;1569;-61
2022/03/02 04:59:41;;;;;;;;;;;;;;;17.07;39.14;101217.50;5075979;28;769;-61
2022/03/02 05:02:06;;;;;;;;;;;;;;;17.57;37.88;101215.28;5076253;28;828;-60
2022/03/02 05:04:31;;;;;;;;;;;;;;;17.86;37.35;101208.47;5076425;28;770;-60
2022/03/02 05:06:57;;;;;;;;;;;;;;;17.58;37.81;101214.16;5076882;28;1902;-60
2022/03/02 05:09:22;;;;;;;;;;;;;;;17.02;39.17;101211.97;5076219;28;840;-60
2022/03/02 05:11:48;;;;;;;;;;;;;;;16.75;39.70;101218.38;5076022;28;829;-60
2022/03/02 05:14:13;;;;;;;;;;;;;;;16.55;40.20;101207.22;5075763;28;852;-60
2022/03/02 05:16:39;;;;;;;;;;;;;;;16.47;40.30;101211.28;5075970;28;902;-62
2022/03/02 05:19:04;;;;;;;;;;;;;;;16.62;40.01;101213.34;5076326;28;880;-61
2022/03/02 05:21:29;;;;;;;;;;;;;;;16.71;39.94;101208.19;5076226;28;810;-59
2022/03/02 05:23:55;;;;;;;;;;;;;;;16.76;39.43;101214.53;5075702;28;821;-60
2022/03/02 05:26:20;;;;;;;;;;;;;;;17.07;38.96;101203.75;5075637;28;1901;-61
2022/03/02 05:28:46;;;;;;;;;;;;;;;17.80;37.67;101213.13;5075894;28;876;-59
2022/03/02 05:31:11;;;;;;;;;;;;;;;17.69;37.53;101204.00;5057972;28;989;-60
2022/03/02 05:33:36;;;;;;;;;;;;;;;17.02;39.06;101213.91;5076007;28;802;-61
2022/03/02 05:36:02;;;;;;;;;;;;;;;16.65;39.75;101212.81;5075804;28;826;-60
2022/03/02 05:38:27;;;;;;;;;;;;;;;16.50;40.32;101207.22;5075359;28;769;-63
2022/03/02 05:40:53;;;;;;;;;;;;;;;16.58;40.22;101207.53;5076106;28;853;-60
2022/03/02 05:43:18;;;;;;;;;;;;;;;16.89;39.30;101202.28;5075292;28;949;-60
2022/03/02 05:45:44;;;;;;;;;;;;;;;17.24;38.62;101205.50;5075176;28;1182;-62
2022/03/02 05:48:10;;;;;;;;;;;;;;;17.41;38.22;101205.31;5075791;28;1913;-63
2022/03/02 05:50:35;;;;;;;;;;;;;;;17.28;38.39;101209.38;5075722;28;1068;-62
2022/03/02 05:53:00;;;;;;;;;;;;;;;16.97;39.22;101209.22;5075744;28;836;-61
2022/03/02 05:55:26;;;;;;;;;;;;;;;16.73;39.66;101208.72;5075697;28;1385;-64
2022/03/02 05:57:51;;;;;;;;;;;;;;;16.55;40.02;101201.72;5075910;28;834;-61
2022/03/02 06:00:17;;;;;;;;;;;;;;;16.63;39.90;101211.41;5075769;28;792;-62
2022/03/02 06:02:42;;;;;;;;;;;;;;;16.80;39.76;101208.50;5074904;28;982;-61
2022/03/02 06:05:11;;;;;;;;;;;;;;;16.82;39.82;101217.31;5074694;28;1289;-60
2022/03/02 06:07:36;;;;;;;;;;;;;;;17.30;38.74;101200.84;5074865;28;1909;-60
2022/03/02 06:10:02;;;;;;;;;;;;;;;17.46;38.29;101205.34;5057669;28;1127;-60
2022/03/02 06:12:28;;;;;;;;;;;;;;;17.26;38.70;101206.06;5075453;28;977;-60
2022/03/02 06:14:54;;;;;;;;;;;;;;;16.97;39.25;101208.38;5073027;28;1324;-60
2022/03/02 06:17:19;;;;;;;;;;;;;;;16.68;39.68;101208.72;5074654;28;1300;-61
2022/03/02 06:19:45;;;;;;;;;;;;;;;16.52;40.02;101213.25;5075398;28;1226;-60
2022/03/02 06:22:10;;;;;;;;;;;;;;;16.60;39.80;101199.03;5075409;28;872;-60
2022/03/02 06:24:36;;;;;;;;;;;;;;;16.73;39.76;101209.56;5076033;28;780;-60
2022/03/02 06:27:01;;;;;;;;;;;;;;;17.06;38.95;101201.28;5074713;28;2019;-61
2022/03/02 06:29:27;;;;;;;;;;;;;;;16.71;39.55;101211.75;5074793;28;973;-63
2022/03/02 06:31:52;;;;;;;;;;;;;;;16.48;40.22;101201.13;5075092;28;835;-63
2022/03/02 06:34:18;;;;;;;;;;;;;;;16.19;39.80;101204.19;5075385;28;1158;-63
2022/03/02 06:36:45;;;;;;;;;;;;;;;16.42;40.63;101203.84;5075074;28;1047;-63
2022/03/02 06:39:10;;;;;;;;;;;;;;;16.55;39.97;101207.22;5075134;28;1293;-65
2022/03/02 06:41:39;;;;;;;;;;;;;;;16.39;40.28;101204.34;5075005;28;1443;-64
2022/03/02 06:44:05;;;;;;;;;;;;;;;16.22;40.63;101203.69;5074796;28;1416;-61
2022/03/02 06:46:46;;;;;;;;;;;;;;;16.35;40.50;101203.22;5076596;28;1902;-65
2022/03/02 06:49:23;;;;;;;;;;;;;;;16.48;39.93;101191.00;5073863;28;1229;-63
2022/03/02 06:51:49;;;;;;;;;;;;;;;17.61;38.31;101201.78;5072218;28;1321;-64
2022/03/02 06:54:14;;;;;;;;;;;;;;;17.98;37.03;101194.47;5071302;28;1431;-63
2022/03/02 06:56:44;;;;;;;;;;;;;;;17.47;38.24;101201.47;5080437;28;1260;-65
2022/03/02 06:59:10;;;;;;;;;;;;;;;16.93;39.13;101188.84;5079514;28;1367;-63
2022/03/02 07:01:36;;;;;;;;;;;;;;;17.64;37.82;101192.19;5075018;28;1407;-62
2022/03/02 07:04:01;;;;;;;;;;;;;;;18.18;36.68;101193.69;5077152;28;1306;-60
2022/03/02 07:06:27;;;;;;;;;;;;;;;17.41;38.31;101186.06;5077025;28;1957;-61
2022/03/02 07:08:54;;;;;;;;;;;;;;;17.06;38.94;101187.53;5077730;28;1246;-60
2022/03/02 07:11:20;;;;;;;;;;;;;;;17.78;37.59;101188.66;5083799;28;1059;-61
2022/03/02 07:13:45;;;;;;;;;;;;;;;18.16;36.80;101184.88;5078063;28;1510;-60
2022/03/02 07:16:12;;;;;;;;;;;;;;;17.51;37.95;101182.50;5076670;28;980;-59
2022/03/02 07:18:37;;;;;;;;;;;;;;;17.17;38.82;101181.00;5074795;28;1547;-59
2022/03/02 07:21:10;;;;;;;;;;;;;;;16.90;39.10;101184.72;5076809;28;1109;-61
2022/03/02 07:23:35;;;;;;;;;;;;;;;16.72;39.38;101187.88;5077269;28;935;-58
2022/03/02 07:26:01;;;;;;;;;;;;;;;16.72;40.14;101185.94;5077225;28;1255;-62
2022/03/02 07:28:26;;;;;;;;;;;;;;;16.73;40.21;101179.38;5077497;28;1990;-59
2022/03/02 07:30:52;;;;;;;;;;;;;;;16.87;40.00;101176.97;5076821;28;1281;-58
2022/03/02 07:33:18;;;;;;;;;;;;;;;17.06;39.24;101173.81;5080172;28;1424;-58
2022/03/02 07:35:46;;;;;;;;;;;;;;;17.09;39.18;101171.34;5075854;28;1028;-58
2022/03/02 07:38:11;;;;;;;;;;;;;;;16.86;39.92;101180.00;5111218;28;1450;-59
2022/03/02 07:40:37;;;;;;;;;;;;;;;16.60;40.42;101174.31;5077199;28;1427;-64
2022/03/02 07:43:02;;;;;;;;;;;;;;;16.61;40.41;101170.50;5077032;28;1334;-65
2022/03/02 07:45:28;;;;;;;;;;;;;;;17.15;39.52;101176.88;5076148;28;1408;-66
2022/03/02 07:47:56;;;;;;;;;;;;;;;17.87;37.63;101166.09;5078614;28;1902;-63
2022/03/02 07:50:22;;;;;;;;;;;;;;;17.25;38.92;101160.41;5076229;28;1287;-62
2022/03/02 07:52:48;;;;;;;;;;;;;;;16.83;39.50;101159.38;5077062;28;867;-62
2022/03/02 07:55:14;;;;;;;;;;;;;;;16.92;39.64;101165.22;5080503;28;1563;-64
2022/03/02 07:57:40;;;;;;;;;;;;;;;16.72;40.30;101169.47;5076013;28;885;-63
2022/03/02 08:00:06;;;;;;;;;;;;;;;16.60;40.27;101161.41;5078843;28;1257;-64
2022/03/02 08:02:31;;;;;;;;;;;;;;;16.71;40.09;101156.81;5078444;28;1309;-63
2022/03/02 08:04:56;;;;;;;;;;;;;;;16.62;40.10;101161.19;5078965;28;1630;-68
2022/03/02 08:07:22;;;;;;;;;;;;;;;16.65;40.18;101162.53;5075597;28;1942;-66
2022/03/02 08:09:49;;;;;;;;;;;;;;;16.67;40.19;101157.63;5076006;28;1336;-63
2022/03/02 08:12:14;;;;;;;;;;;;;;;16.62;39.99;101152.94;5076101;28;1342;-63
2022/03/02 08:14:41;;;;;;;;;;;;;;;16.50;40.37;101155.03;5074580;28;1373;-62
2022/03/02 08:17:06;;;;;;;;;;;;;;;16.60;40.27;101153.19;5100481;28;1372;-62
2022/03/02 08:19:32;;;;;;;;;;;;;;;16.74;40.04;101150.78;5079939;28;1558;-61
2022/03/02 08:21:58;;;;;;;;;;;;;;;16.73;40.06;101149.16;5075773;28;1176;-62
2022/03/02 08:24:25;;;;;;;;;;;;;;;16.89;39.59;101152.03;5081154;28;1588;-60
2022/03/02 08:26:52;;;;;;;;;;;;;;;16.99;39.57;101151.25;5076394;28;1905;-63
2022/03/02 08:29:17;;;;;;;;;;;;;;;17.03;39.40;101153.19;5071411;28;1336;-62
2022/03/02 08:31:43;;;;;;;;;;;;;;;16.97;39.53;101142.44;5101304;28;1192;-61
2022/03/02 08:34:09;;;;;;;;;;;;;;;16.75;40.05;101138.72;5080477;28;1250;-57
2022/03/02 08:36:35;;;;;;;;;;;;;;;16.58;40.07;101144.38;5075639;28;1427;-62
2022/03/02 08:39:07;;;;;;;;;;;;;;;16.55;40.21;101152.31;5076329;28;1222;-61
2022/03/02 08:41:32;;;;;;;;;;;;;;;17.08;39.19;101150.47;5075969;28;1396;-62
2022/03/02 08:43:58;;;;;;;;;;;;;;;17.59;37.85;101157.25;5075861;28;1265;-61
2022/03/02 08:46:24;;;;;;;;;;;;;;;17.10;39.19;101150.19;5075738;28;876;-60
2022/03/02 08:48:50;;;;;;;;;;;;;;;17.37;38.83;101141.78;5076327;28;1106;-62
2022/03/02 08:51:16;;;;;;;;;;;;;;;17.87;37.69;101146.84;5077162;28;905;-62
2022/03/02 08:53:43;;;;;;;;;;;;;;;17.61;38.14;101136.63;5075840;28;1526;-62
2022/03/02 08:56:08;;;;;;;;;;;;;;;17.11;39.06;101129.88;5099340;28;1792;-63
2022/03/02 08:58:34;;;;;;;;;;;;;;;17.02;39.55;101126.81;5087699;28;1449;-60
2022/03/02 09:01:00;;;;;;;;;;;;;;;17.19;39.08;101125.78;5093842;28;1398;-61
2022/03/02 09:03:25;;;;;;;;;;;;;;;17.61;37.89;101124.78;5074207;28;1420;-61
2022/03/02 09:05:51;;;;;;;;;;;;;;;17.19;38.93;101121.09;5069871;28;1080;-60
2022/03/02 09:08:16;;;;;;;;;;;;;;;17.19;38.92;101123.84;5072020;28;2004;-60
2022/03/02 09:10:42;;;;;;;;;;;;;;;17.96;37.40;101114.97;5075461;28;1199;-61
2022/03/02 09:13:09;;;;;;;;;;;;;;;18.40;36.44;101114.38;5073790;28;1051;-61
2022/03/02 09:15:37;;;;;;;;;;;;;;;17.64;37.93;101115.19;5071196;28;1622;-61
2022/03/02 09:18:06;;;;;;;;;;;;;;;17.37;38.60;101105.22;5074607;28;1312;-63
2022/03/02 09:20:31;;;;;;;;;;;;;;;18.29;36.86;101105.31;5070970;28;1629;-65
2022/03/02 09:22:56;;;;;;;;;;;;;;;18.41;36.38;101105.03;5076054;28;1383;-70
2022/03/02 09:25:22;;;;;;;;;;;;;;;18.37;36.52;101098.44;5070833;28;1724;-62
2022/03/02 09:27:47;;;;;;;;;;;;;;;17.92;37.43;101094.59;5073440;28;1902;-61
2022/03/02 09:30:13;;;;;;;;;;;;;;;17.46;38.33;101095.34;5105489;28;1374;-62
2022/03/02 09:32:39;;;;;;;;;;;;;;;17.13;39.16;101091.16;5075177;28;1342;-60
2022/03/02 09:35:04;;;;;;;;;;;;;;;16.97;39.37;101082.00;5073881;28;1736;-63
2022/03/02 09:37:32;;;;;;;;;;;;;;;17.04;39.60;101079.81;5075479;28;1306;-64
2022/03/02 09:39:57;;;;;;;;;;;;;;;18.32;36.99;101081.91;5069814;28;1314;-60
2022/03/02 09:42:27;;;;;;;;;;;;;;;18.39;36.54;101074.19;5075014;28;1258;-58
2022/03/02 09:44:53;;;;;;;;;;;;;;;17.83;37.55;101077.78;5082686;28;1410;-60
2022/03/02 09:47:20;;;;;;;;;;;;;;;17.45;38.27;101068.97;5075731;28;1905;-60
2022/03/02 09:49:53;;;;;;;;;;;;;;;17.18;38.99;101078.25;5083300;28;1407;-61
2022/03/02 09:52:19;;;;;;;;;;;;;;;16.73;39.86;101065.94;5074492;28;1423;-63
2022/03/02 09:54:45;;;;;;;;;;;;;;;17.10;39.30;101068.59;5073994;28;1163;-61
2022/03/02 09:57:11;;;;;;;;;;;;;;;17.97;37.51;101064.34;5078568;28;1280;-62
2022/03/02 09:59:38;;;;;;;;;;;;;;;18.79;35.73;101058.66;5077146;28;1357;-62
2022/03/02 10:02:04;;;;;;;;;;;;;;;18.23;36.86;101056.03;5077104;28;1336;-61
2022/03/02 10:04:30;;;;;;;;;;;;;;;17.81;37.77;101043.41;5082253;28;1435;-61
2022/03/02 10:07:26;;;;;;;;;;;;;;;17.59;38.21;101045.31;5107466;28;1897;-60
2022/03/02 10:09:42;;;;;;;;;;;;;;;17.34;38.90;101043.38;5075799;28;1523;-59
2022/03/02 10:12:08;;;;;;;;;;;;;;;17.09;39.19;101033.97;5074941;28;1210;-60
2022/03/02 10:14:33;;;;;;;;;;;;;;;17.13;39.38;101036.19;5078886;28;1355;-60
2022/03/02 10:16:59;;;;;;;;;;;;;;;17.50;38.58;101024.16;5081689;28;1506;-61
2022/03/02 10:19:24;;;;;;;;;;;;;;;17.88;37.67;101027.44;5075139;28;1678;-61
2022/03/02 10:22:16;;;;;;;;;;;;;;;18.19;36.94;101020.00;5105381;28;1265;-61
2022/03/02 10:24:45;;;;;;;;;;;;;;;18.54;36.21;101003.69;5061106;28;1433;-61
2022/03/02 10:27:12;;;;;;;;;;;;;;;18.71;35.94;101006.88;5074974;28;1964;-61
2022/03/02 10:29:44;;;;;;;;;;;;;;;18.93;35.73;101000.22;5104016;28;1519;-61
2022/03/02 10:32:14;;;;;;;;;;;;;;;18.62;36.12;101003.91;5073168;28;1211;-61
2022/03/02 10:35:00;;;;;;;;;;;;;;;18.23;36.89;100993.56;5106916;28;1269;-61
2022/03/02 10:37:35;;;;;;;;;;;;;;;17.76;37.88;100995.53;5071978;28;1255;-62
2022/03/02 10:40:13;;;;;;;;;;;;;;;17.34;38.77;100991.13;5082933;28;1482;-62
2022/03/02 10:43:00;;;;;;;;;;;;;;;16.94;39.21;100984.47;5081131;28;1234;-61
2022/03/02 10:45:26;;;;;;;;;;;;;;;16.82;39.85;100986.63;5076981;28;1590;-59
2022/03/02 10:47:56;;;;;;;;;;;;;;;17.10;39.60;100977.91;5084575;28;1975;-59
2022/03/02 10:50:22;;;;;;;;;;;;;;;17.77;38.48;100972.44;5110330;28;974;-59
2022/03/02 10:52:48;;;;;;;;;;;;;;;18.62;36.64;100972.78;5079994;28;1317;-60
2022/03/02 10:55:13;;;;;;;;;;;;;;;18.19;37.27;100964.97;5079129;28;760;-59
2022/03/02 10:57:39;;;;;;;;;;;;;;;17.91;37.59;100958.16;5082719;28;1403;-62
2022/03/02 11:00:09;;;;;;;;;;;;;;;17.94;38.00;100955.66;5077442;28;1079;-60
2022/03/02 11:02:34;;;;;;;;;;;;;;;17.70;38.27;100946.34;5077429;28;1242;-61
2022/03/02 11:05:00;;;;;;;;;;;;;;;17.52;38.61;100942.22;5078019;28;1710;-61
2022/03/02 11:07:25;;;;;;;;;;;;;;;17.60;38.79;100937.00;5109933;28;1960;-61
2022/03/02 11:09:51;;;;;;;;;;;;;;;17.47;38.73;100937.53;5110337;28;1357;-63
2022/03/02 11:12:20;;;;;;;;;;;;;;;17.39;39.29;100938.09;5078068;28;1237;-61
2022/03/02 11:14:56;;;;;;;;;;;;;;;17.82;38.27;100929.53;5079869;28;1475;-61
2022/03/02 11:17:21;;;;;;;;;;;;;;;18.18;37.35;100923.97;5076525;28;961;-61
2022/03/02 11:19:47;;;;;;;;;;;;;;;18.41;37.01;100915.06;5077869;28;1284;-60
2022/03/02 11:22:13;;;;;;;;;;;;;;;18.63;36.29;100911.91;5077176;28;1023;-60
2022/03/02 11:24:39;;;;;;;;;;;;;;;18.76;35.99;100906.88;5076578;28;1048;-59
2022/03/02 11:27:04;;;;;;;;;;;;;;;19.00;35.86;100901.53;5081423;28;1906;-63
2022/03/02 11:29:31;;;;;;;;;;;;;;;18.93;35.88;100896.31;5078165;28;1321;-62
2022/03/02 11:31:57;;;;;;;;;;;;;;;18.53;36.71;100892.69;5078805;28;1263;-70
2022/03/02 11:34:28;;;;;;;;;;;;;;;18.36;37.13;100886.72;5080684;28;1269;-67
2022/03/02 11:36:55;;;;;;;;;;;;;;;17.96;37.78;100894.84;5080928;28;1557;-62
2022/03/02 11:39:24;;;;;;;;;;;;;;;17.62;38.30;100888.03;5076489;28;1166;-60
2022/03/02 11:41:50;;;;;;;;;;;;;;;17.44;38.39;100883.94;5072623;28;967;-60
2022/03/02 11:44:31;;;;;;;;;;;;;;;17.23;40.19;100894.09;5076219;28;1262;-60
2022/03/02 11:46:57;;;;;;;;;;;;;;;18.73;36.69;100880.75;5072230;28;1976;-61
2022/03/02 11:49:42;;;;;;;;;;;;;;;18.63;36.86;100878.03;5076074;28;996;-65
2022/03/02 11:52:18;;;;;;;;;;;;;;;17.91;37.99;100870.13;5076316;28;1218;-64
2022/03/02 11:54:49;;;;;;;;;;;;;;;17.45;39.02;100863.59;5077054;28;726;-65
2022/03/02 11:57:16;;;;;;;;;;;;;;;16.95;39.42;100881.75;5081221;28;1364;-64
2022/03/02 11:59:41;;;;;;;;;;;;;;;16.85;39.94;100878.97;5076139;28;893;-65
2022/03/02 12:02:13;;;;;;;;;;;;;;;17.99;38.16;100883.28;5076857;28;967;-64
2022/03/02 12:04:39;;;;;;;;;;;;;;;18.74;36.33;100860.31;5081920;28;1538;-61
2022/03/02 12:07:04;;;;;;;;;;;;;;;17.94;38.06;100869.56;5077692;28;1963;-64
2022/03/02 12:09:31;;;;;;;;;;;;;;;17.56;38.93;100869.09;5075696;28;1111;-64
2022/03/02 12:12:09;;;;;;;;;;;;;;;17.13;39.77;100872.13;5076377;28;1178;-62
2022/03/02 12:14:39;;;;;;;;;;;;;;;18.16;37.58;100860.94;5073702;28;1112;-64
2022/03/02 12:17:06;;;;;;;;;;;;;;;18.80;36.37;100859.19;5077763;28;1356;-66
2022/03/02 12:19:31;;;;;;;;;;;;;;;18.04;37.67;100857.69;5076071;28;1204;-62
2022/03/02 12:22:00;;;;;;;;;;;;;;;17.71;38.54;100844.31;5077443;28;1352;-62
2022/03/02 12:24:27;;;;;;;;;;;;;;;18.20;37.47;100855.69;5077739;28;1360;-63
2022/03/02 12:26:59;;;;;;;;;;;;;;;17.92;37.96;100852.50;5076357;28;1982;-63
2022/03/02 12:29:25;;;;;;;;;;;;;;;17.42;39.03;100841.34;5082857;28;1399;-62
2022/03/02 12:31:50;;;;;;;;;;;;;;;17.15;39.49;100852.63;5076387;28;1019;-60
2022/03/02 12:34:16;;;;;;;;;;;;;;;16.96;40.23;100849.59;5080577;28;1344;-60
2022/03/02 12:36:42;;;;;;;;;;;;;;;17.58;38.81;100845.69;5075755;28;1203;-58
2022/03/02 12:39:07;;;;;;;;;;;;;;;18.31;37.01;100840.75;5075439;28;1187;-57
2022/03/02 12:41:33;;;;;;;;;;;;;;;17.58;38.68;100840.19;5078134;28;1775;-59
2022/03/02 12:43:58;;;;;;;;;;;;;;;17.31;39.00;100829.53;5076140;28;856;-61
2022/03/02 12:46:24;;;;;;;;;;;;;;;16.93;39.80;100829.84;5072877;28;1584;-60
2022/03/02 12:48:50;;;;;;;;;;;;;;;17.50;38.95;100827.03;5107054;27;1906;-62